sensor_id;sensor_type;location;lat;lon;timestamp;P1;durP1;ratioP1;P2;durP2;ratioP2
78925;SDS011;68321;51.276;7.208;2023-06-14T00:00:12;8.43;;;5.40;;
78925;SDS011;68321;51.276;7.208;2023-06-14T00:02:40;8.23;;;5.30;;
78925;SDS011;68321;51.276;7.208;2023-06-14T00:05:06;12.57;;;6.68;;
78925;SDS011;68321;51.276;7.208;2023-06-14T00:07:36;11.52;;;7.47;;
78925;SDS011;68321;51.276;7.208;2023-06-14T00:10:03;9.77;;;6.35;;
78925;SDS011;68321;51.276;7.208;2023-06-14T00:12:30;8.27;;;5.55;;
78925;SDS011;68321;51.276;7.208;2023-06-14T00:14:56;10.40;;;5.80;;
78925;SDS011;68321;51.276;7.208;2023-06-14T00:17:21;8.85;;;5.72;;
78925;SDS011;68321;51.276;7.208;2023-06-14T00:19:47;11.27;;;6.03;;
78925;SDS011;68321;51.276;7.208;2023-06-14T00:22:12;8.48;;;5.38;;
78925;SDS011;68321;51.276;7.208;2023-06-14T00:24:38;12.67;;;6.40;;
78925;SDS011;68321;51.276;7.208;2023-06-14T00:27:03;7.00;;;5.90;;
78925;SDS011;68321;51.276;7.208;2023-06-14T00:29:29;7.53;;;5.82;;
78925;SDS011;68321;51.276;7.208;2023-06-14T00:31:54;6.35;;;5.07;;
78925;SDS011;68321;51.276;7.208;2023-06-14T00:34:20;10.60;;;6.17;;
78925;SDS011;68321;51.276;7.208;2023-06-14T00:36:45;9.32;;;5.75;;
78925;SDS011;68321;51.276;7.208;2023-06-14T00:39:10;7.87;;;5.10;;
78925;SDS011;68321;51.276;7.208;2023-06-14T00:41:36;7.88;;;5.28;;
78925;SDS011;68321;51.276;7.208;2023-06-14T00:44:02;10.57;;;5.53;;
78925;SDS011;68321;51.276;7.208;2023-06-14T00:46:28;7.63;;;5.10;;
78925;SDS011;68321;51.276;7.208;2023-06-14T00:48:53;8.10;;;6.17;;
78925;SDS011;68321;51.276;7.208;2023-06-14T00:51:20;8.65;;;5.20;;
78925;SDS011;68321;51.276;7.208;2023-06-14T00:53:46;6.80;;;4.90;;
78925;SDS011;68321;51.276;7.208;2023-06-14T00:56:12;8.30;;;5.78;;
78925;SDS011;68321;51.276;7.208;2023-06-14T00:58:39;9.07;;;5.50;;
78925;SDS011;68321;51.276;7.208;2023-06-14T01:01:05;8.18;;;5.35;;
78925;SDS011;68321;51.276;7.208;2023-06-14T01:03:30;7.97;;;5.33;;
78925;SDS011;68321;51.276;7.208;2023-06-14T01:06:03;6.07;;;4.65;;
78925;SDS011;68321;51.276;7.208;2023-06-14T01:08:55;6.68;;;4.72;;
78925;SDS011;68321;51.276;7.208;2023-06-14T01:11:33;6.25;;;4.95;;
78925;SDS011;68321;51.276;7.208;2023-06-14T01:14:21;8.63;;;5.35;;
78925;SDS011;68321;51.276;7.208;2023-06-14T01:16:47;8.18;;;5.38;;
78925;SDS011;68321;51.276;7.208;2023-06-14T01:19:12;8.20;;;5.90;;
78925;SDS011;68321;51.276;7.208;2023-06-14T01:21:39;9.52;;;6.43;;
78925;SDS011;68321;51.276;7.208;2023-06-14T01:24:07;8.32;;;5.38;;
78925;SDS011;68321;51.276;7.208;2023-06-14T01:26:33;8.77;;;5.93;;
78925;SDS011;68321;51.276;7.208;2023-06-14T01:29:00;8.40;;;6.30;;
78925;SDS011;68321;51.276;7.208;2023-06-14T01:31:26;7.38;;;5.40;;
78925;SDS011;68321;51.276;7.208;2023-06-14T01:33:52;11.45;;;5.40;;
78925;SDS011;68321;51.276;7.208;2023-06-14T01:36:18;9.40;;;6.40;;
78925;SDS011;68321;51.276;7.208;2023-06-14T01:38:44;8.77;;;6.05;;
78925;SDS011;68321;51.276;7.208;2023-06-14T01:41:10;13.27;;;6.03;;
78925;SDS011;68321;51.276;7.208;2023-06-14T01:43:36;12.88;;;6.78;;
78925;SDS011;68321;51.276;7.208;2023-06-14T01:46:02;9.70;;;6.40;;
78925;SDS011;68321;51.276;7.208;2023-06-14T01:48:28;10.00;;;6.75;;
78925;SDS011;68321;51.276;7.208;2023-06-14T01:50:53;10.52;;;6.05;;
78925;SDS011;68321;51.276;7.208;2023-06-14T01:53:19;10.00;;;6.43;;
78925;SDS011;68321;51.276;7.208;2023-06-14T01:55:44;11.50;;;6.13;;
78925;SDS011;68321;51.276;7.208;2023-06-14T01:58:13;9.98;;;6.22;;
78925;SDS011;68321;51.276;7.208;2023-06-14T02:00:39;8.50;;;6.32;;
78925;SDS011;68321;51.276;7.208;2023-06-14T02:03:05;9.45;;;6.30;;
78925;SDS011;68321;51.276;7.208;2023-06-14T02:05:30;8.50;;;6.30;;
78925;SDS011;68321;51.276;7.208;2023-06-14T02:07:56;11.47;;;6.83;;
78925;SDS011;68321;51.276;7.208;2023-06-14T02:10:21;11.53;;;6.20;;
78925;SDS011;68321;51.276;7.208;2023-06-14T02:12:46;12.55;;;6.53;;
78925;SDS011;68321;51.276;7.208;2023-06-14T02:15:12;8.45;;;5.70;;
78925;SDS011;68321;51.276;7.208;2023-06-14T02:17:41;10.85;;;5.90;;
78925;SDS011;68321;51.276;7.208;2023-06-14T02:20:14;10.45;;;5.88;;
78925;SDS011;68321;51.276;7.208;2023-06-14T02:22:40;7.78;;;6.20;;
78925;SDS011;68321;51.276;7.208;2023-06-14T02:25:05;7.53;;;5.78;;
78925;SDS011;68321;51.276;7.208;2023-06-14T02:27:32;8.63;;;5.60;;
78925;SDS011;68321;51.276;7.208;2023-06-14T02:29:58;10.75;;;6.85;;
78925;SDS011;68321;51.276;7.208;2023-06-14T02:32:23;10.27;;;6.03;;
78925;SDS011;68321;51.276;7.208;2023-06-14T02:34:49;7.95;;;5.88;;
78925;SDS011;68321;51.276;7.208;2023-06-14T02:37:15;9.23;;;5.37;;
78925;SDS011;68321;51.276;7.208;2023-06-14T02:39:41;7.53;;;5.35;;
78925;SDS011;68321;51.276;7.208;2023-06-14T02:42:06;13.67;;;5.10;;
78925;SDS011;68321;51.276;7.208;2023-06-14T02:44:32;8.23;;;5.40;;
78925;SDS011;68321;51.276;7.208;2023-06-14T02:46:57;7.17;;;5.17;;
78925;SDS011;68321;51.276;7.208;2023-06-14T02:49:23;7.38;;;6.38;;
78925;SDS011;68321;51.276;7.208;2023-06-14T02:51:49;11.57;;;6.03;;
78925;SDS011;68321;51.276;7.208;2023-06-14T02:54:14;10.40;;;6.22;;
78925;SDS011;68321;51.276;7.208;2023-06-14T02:56:40;7.68;;;5.65;;
78925;SDS011;68321;51.276;7.208;2023-06-14T02:59:06;8.52;;;5.93;;
78925;SDS011;68321;51.276;7.208;2023-06-14T03:01:32;10.55;;;6.15;;
78925;SDS011;68321;51.276;7.208;2023-06-14T03:04:01;8.80;;;5.55;;
78925;SDS011;68321;51.276;7.208;2023-06-14T03:06:28;8.95;;;5.40;;
78925;SDS011;68321;51.276;7.208;2023-06-14T03:08:55;9.00;;;5.55;;
78925;SDS011;68321;51.276;7.208;2023-06-14T03:11:25;9.52;;;5.65;;
78925;SDS011;68321;51.276;7.208;2023-06-14T03:13:51;8.77;;;5.85;;
78925;SDS011;68321;51.276;7.208;2023-06-14T03:16:17;8.45;;;5.60;;
78925;SDS011;68321;51.276;7.208;2023-06-14T03:18:45;10.05;;;6.35;;
78925;SDS011;68321;51.276;7.208;2023-06-14T03:21:10;6.65;;;5.30;;
78925;SDS011;68321;51.276;7.208;2023-06-14T03:23:36;7.07;;;5.60;;
78925;SDS011;68321;51.276;7.208;2023-06-14T03:26:01;7.93;;;5.75;;
78925;SDS011;68321;51.276;7.208;2023-06-14T03:28:26;10.60;;;5.68;;
78925;SDS011;68321;51.276;7.208;2023-06-14T03:30:52;6.87;;;5.10;;
78925;SDS011;68321;51.276;7.208;2023-06-14T03:33:17;7.88;;;5.43;;
78925;SDS011;68321;51.276;7.208;2023-06-14T03:35:43;9.27;;;5.27;;
78925;SDS011;68321;51.276;7.208;2023-06-14T03:38:08;9.15;;;5.82;;
78925;SDS011;68321;51.276;7.208;2023-06-14T03:40:33;8.73;;;6.03;;
78925;SDS011;68321;51.276;7.208;2023-06-14T03:42:59;10.48;;;6.38;;
78925;SDS011;68321;51.276;7.208;2023-06-14T03:45:25;7.30;;;5.68;;
78925;SDS011;68321;51.276;7.208;2023-06-14T03:47:50;6.85;;;5.22;;
78925;SDS011;68321;51.276;7.208;2023-06-14T03:50:16;8.07;;;5.93;;
78925;SDS011;68321;51.276;7.208;2023-06-14T03:52:43;7.40;;;6.07;;
78925;SDS011;68321;51.276;7.208;2023-06-14T03:55:08;8.10;;;5.30;;
78925;SDS011;68321;51.276;7.208;2023-06-14T03:57:35;7.82;;;6.00;;
78925;SDS011;68321;51.276;7.208;2023-06-14T04:00:00;7.13;;;5.93;;
78925;SDS011;68321;51.276;7.208;2023-06-14T04:02:25;12.70;;;6.13;;
78925;SDS011;68321;51.276;7.208;2023-06-14T04:04:53;8.82;;;5.88;;
78925;SDS011;68321;51.276;7.208;2023-06-14T04:07:19;10.15;;;6.35;;
78925;SDS011;68321;51.276;7.208;2023-06-14T04:09:45;10.35;;;5.75;;
78925;SDS011;68321;51.276;7.208;2023-06-14T04:12:11;9.68;;;5.65;;
78925;SDS011;68321;51.276;7.208;2023-06-14T04:14:36;8.23;;;5.45;;
78925;SDS011;68321;51.276;7.208;2023-06-14T04:17:02;7.30;;;5.15;;
78925;SDS011;68321;51.276;7.208;2023-06-14T04:19:27;8.73;;;5.40;;
78925;SDS011;68321;51.276;7.208;2023-06-14T04:21:53;6.93;;;5.33;;
78925;SDS011;68321;51.276;7.208;2023-06-14T04:24:18;6.17;;;4.83;;
78925;SDS011;68321;51.276;7.208;2023-06-14T04:26:44;6.53;;;4.55;;
78925;SDS011;68321;51.276;7.208;2023-06-14T04:29:10;7.85;;;5.03;;
78925;SDS011;68321;51.276;7.208;2023-06-14T04:31:39;9.27;;;5.03;;
78925;SDS011;68321;51.276;7.208;2023-06-14T04:34:07;7.55;;;4.50;;
78925;SDS011;68321;51.276;7.208;2023-06-14T04:36:33;9.20;;;5.60;;
78925;SDS011;68321;51.276;7.208;2023-06-14T04:39:06;7.95;;;5.05;;
78925;SDS011;68321;51.276;7.208;2023-06-14T04:41:32;9.55;;;5.80;;
78925;SDS011;68321;51.276;7.208;2023-06-14T04:44:00;11.85;;;6.03;;
78925;SDS011;68321;51.276;7.208;2023-06-14T04:46:29;15.70;;;9.15;;
78925;SDS011;68321;51.276;7.208;2023-06-14T04:48:57;7.50;;;5.18;;
78925;SDS011;68321;51.276;7.208;2023-06-14T04:51:22;7.28;;;5.13;;
78925;SDS011;68321;51.276;7.208;2023-06-14T04:53:54;8.57;;;4.53;;
78925;SDS011;68321;51.276;7.208;2023-06-14T04:56:23;8.13;;;5.18;;
78925;SDS011;68321;51.276;7.208;2023-06-14T04:58:50;8.93;;;4.88;;
78925;SDS011;68321;51.276;7.208;2023-06-14T05:01:15;10.82;;;5.18;;
78925;SDS011;68321;51.276;7.208;2023-06-14T05:03:40;14.52;;;5.50;;
78925;SDS011;68321;51.276;7.208;2023-06-14T05:06:06;10.18;;;5.20;;
78925;SDS011;68321;51.276;7.208;2023-06-14T05:08:31;10.60;;;5.93;;
78925;SDS011;68321;51.276;7.208;2023-06-14T05:10:57;8.20;;;5.25;;
78925;SDS011;68321;51.276;7.208;2023-06-14T05:13:22;9.00;;;5.77;;
78925;SDS011;68321;51.276;7.208;2023-06-14T05:15:48;7.40;;;5.32;;
78925;SDS011;68321;51.276;7.208;2023-06-14T05:18:14;7.07;;;4.57;;
78925;SDS011;68321;51.276;7.208;2023-06-14T05:20:40;6.13;;;4.25;;
78925;SDS011;68321;51.276;7.208;2023-06-14T05:23:09;6.10;;;4.70;;
78925;SDS011;68321;51.276;7.208;2023-06-14T05:25:39;10.43;;;7.50;;
78925;SDS011;68321;51.276;7.208;2023-06-14T05:28:06;6.63;;;4.82;;
78925;SDS011;68321;51.276;7.208;2023-06-14T05:30:31;8.30;;;4.40;;
78925;SDS011;68321;51.276;7.208;2023-06-14T05:32:58;8.05;;;4.68;;
78925;SDS011;68321;51.276;7.208;2023-06-14T05:35:23;7.22;;;3.90;;
78925;SDS011;68321;51.276;7.208;2023-06-14T05:37:51;5.75;;;4.03;;
78925;SDS011;68321;51.276;7.208;2023-06-14T05:40:16;11.38;;;4.30;;
78925;SDS011;68321;51.276;7.208;2023-06-14T05:42:42;8.48;;;3.83;;
78925;SDS011;68321;51.276;7.208;2023-06-14T05:45:08;7.72;;;4.35;;
78925;SDS011;68321;51.276;7.208;2023-06-14T05:47:33;7.53;;;4.05;;
78925;SDS011;68321;51.276;7.208;2023-06-14T05:49:58;5.40;;;4.00;;
78925;SDS011;68321;51.276;7.208;2023-06-14T05:52:24;9.67;;;3.73;;
78925;SDS011;68321;51.276;7.208;2023-06-14T05:54:50;8.35;;;4.32;;
78925;SDS011;68321;51.276;7.208;2023-06-14T05:57:15;5.07;;;3.60;;
78925;SDS011;68321;51.276;7.208;2023-06-14T05:59:41;6.97;;;3.97;;
78925;SDS011;68321;51.276;7.208;2023-06-14T06:02:06;7.47;;;4.38;;
78925;SDS011;68321;51.276;7.208;2023-06-14T06:04:31;5.70;;;4.05;;
78925;SDS011;68321;51.276;7.208;2023-06-14T06:06:57;6.67;;;3.50;;
78925;SDS011;68321;51.276;7.208;2023-06-14T06:09:22;7.68;;;3.88;;
78925;SDS011;68321;51.276;7.208;2023-06-14T06:11:48;8.98;;;3.97;;
78925;SDS011;68321;51.276;7.208;2023-06-14T06:14:13;6.05;;;3.72;;
78925;SDS011;68321;51.276;7.208;2023-06-14T06:16:38;9.90;;;3.63;;
78925;SDS011;68321;51.276;7.208;2023-06-14T06:19:04;7.47;;;3.70;;
78925;SDS011;68321;51.276;7.208;2023-06-14T06:21:29;16.88;;;4.35;;
78925;SDS011;68321;51.276;7.208;2023-06-14T06:23:54;5.43;;;3.37;;
78925;SDS011;68321;51.276;7.208;2023-06-14T06:26:21;4.90;;;3.83;;
78925;SDS011;68321;51.276;7.208;2023-06-14T06:28:47;8.27;;;3.47;;
78925;SDS011;68321;51.276;7.208;2023-06-14T06:31:12;5.80;;;3.90;;
78925;SDS011;68321;51.276;7.208;2023-06-14T06:33:38;6.10;;;3.88;;
78925;SDS011;68321;51.276;7.208;2023-06-14T06:36:04;10.60;;;3.65;;
78925;SDS011;68321;51.276;7.208;2023-06-14T06:38:30;7.85;;;3.80;;
78925;SDS011;68321;51.276;7.208;2023-06-14T06:40:55;9.63;;;3.50;;
78925;SDS011;68321;51.276;7.208;2023-06-14T06:43:21;6.18;;;3.55;;
78925;SDS011;68321;51.276;7.208;2023-06-14T06:45:47;6.15;;;3.53;;
78925;SDS011;68321;51.276;7.208;2023-06-14T06:48:12;5.43;;;2.85;;
78925;SDS011;68321;51.276;7.208;2023-06-14T06:50:38;5.97;;;3.20;;
78925;SDS011;68321;51.276;7.208;2023-06-14T06:53:03;4.80;;;3.40;;
78925;SDS011;68321;51.276;7.208;2023-06-14T06:55:31;6.78;;;3.60;;
78925;SDS011;68321;51.276;7.208;2023-06-14T06:57:56;4.60;;;3.33;;
78925;SDS011;68321;51.276;7.208;2023-06-14T07:00:22;5.22;;;2.88;;
78925;SDS011;68321;51.276;7.208;2023-06-14T07:02:47;5.40;;;3.30;;
78925;SDS011;68321;51.276;7.208;2023-06-14T07:05:12;4.90;;;2.80;;
78925;SDS011;68321;51.276;7.208;2023-06-14T07:07:38;4.55;;;3.10;;
78925;SDS011;68321;51.276;7.208;2023-06-14T07:10:04;8.73;;;2.67;;
78925;SDS011;68321;51.276;7.208;2023-06-14T07:12:33;6.55;;;2.70;;
78925;SDS011;68321;51.276;7.208;2023-06-14T07:15:01;4.32;;;2.70;;
78925;SDS011;68321;51.276;7.208;2023-06-14T07:17:26;4.55;;;3.00;;
78925;SDS011;68321;51.276;7.208;2023-06-14T07:19:52;5.90;;;2.55;;
78925;SDS011;68321;51.276;7.208;2023-06-14T07:22:18;3.72;;;2.50;;
78925;SDS011;68321;51.276;7.208;2023-06-14T07:24:43;7.97;;;3.47;;
78925;SDS011;68321;51.276;7.208;2023-06-14T07:27:09;5.40;;;2.90;;
78925;SDS011;68321;51.276;7.208;2023-06-14T07:29:34;5.07;;;2.65;;
78925;SDS011;68321;51.276;7.208;2023-06-14T07:32:00;5.77;;;2.60;;
78925;SDS011;68321;51.276;7.208;2023-06-14T07:34:25;7.57;;;3.10;;
78925;SDS011;68321;51.276;7.208;2023-06-14T07:36:51;9.50;;;2.90;;
78925;SDS011;68321;51.276;7.208;2023-06-14T07:39:16;8.25;;;3.90;;
78925;SDS011;68321;51.276;7.208;2023-06-14T07:41:42;3.27;;;2.30;;
78925;SDS011;68321;51.276;7.208;2023-06-14T07:44:07;3.10;;;2.60;;
78925;SDS011;68321;51.276;7.208;2023-06-14T07:46:32;4.55;;;2.50;;
78925;SDS011;68321;51.276;7.208;2023-06-14T07:48:59;6.65;;;2.40;;
78925;SDS011;68321;51.276;7.208;2023-06-14T07:51:25;5.95;;;1.98;;
78925;SDS011;68321;51.276;7.208;2023-06-14T07:53:50;4.80;;;2.63;;
78925;SDS011;68321;51.276;7.208;2023-06-14T07:56:15;9.27;;;2.00;;
78925;SDS011;68321;51.276;7.208;2023-06-14T07:58:41;5.07;;;2.08;;
78925;SDS011;68321;51.276;7.208;2023-06-14T08:01:06;6.37;;;2.70;;
78925;SDS011;68321;51.276;7.208;2023-06-14T08:03:33;4.68;;;2.45;;
78925;SDS011;68321;51.276;7.208;2023-06-14T08:05:58;3.35;;;2.30;;
78925;SDS011;68321;51.276;7.208;2023-06-14T08:08:23;3.70;;;2.40;;
78925;SDS011;68321;51.276;7.208;2023-06-14T08:10:49;4.68;;;2.17;;
78925;SDS011;68321;51.276;7.208;2023-06-14T08:13:15;3.33;;;2.00;;
78925;SDS011;68321;51.276;7.208;2023-06-14T08:15:40;3.42;;;1.80;;
78925;SDS011;68321;51.276;7.208;2023-06-14T08:18:05;4.13;;;2.30;;
78925;SDS011;68321;51.276;7.208;2023-06-14T08:20:31;3.57;;;2.00;;
78925;SDS011;68321;51.276;7.208;2023-06-14T08:22:57;3.20;;;1.95;;
78925;SDS011;68321;51.276;7.208;2023-06-14T08:25:23;4.93;;;2.13;;
78925;SDS011;68321;51.276;7.208;2023-06-14T08:27:48;4.88;;;2.05;;
78925;SDS011;68321;51.276;7.208;2023-06-14T08:30:15;3.53;;;2.17;;
78925;SDS011;68321;51.276;7.208;2023-06-14T08:32:42;4.68;;;1.88;;
78925;SDS011;68321;51.276;7.208;2023-06-14T08:35:08;3.75;;;2.22;;
78925;SDS011;68321;51.276;7.208;2023-06-14T08:37:33;4.60;;;2.30;;
78925;SDS011;68321;51.276;7.208;2023-06-14T08:40:04;2.65;;;1.73;;
78925;SDS011;68321;51.276;7.208;2023-06-14T08:42:31;3.67;;;1.75;;
78925;SDS011;68321;51.276;7.208;2023-06-14T08:44:57;5.07;;;1.92;;
78925;SDS011;68321;51.276;7.208;2023-06-14T08:47:22;2.90;;;1.57;;
78925;SDS011;68321;51.276;7.208;2023-06-14T08:49:50;2.22;;;1.38;;
78925;SDS011;68321;51.276;7.208;2023-06-14T08:52:16;3.25;;;1.83;;
78925;SDS011;68321;51.276;7.208;2023-06-14T08:54:44;3.90;;;1.88;;
78925;SDS011;68321;51.276;7.208;2023-06-14T08:57:13;3.05;;;1.52;;
78925;SDS011;68321;51.276;7.208;2023-06-14T08:59:40;3.63;;;1.85;;
78925;SDS011;68321;51.276;7.208;2023-06-14T09:02:11;6.28;;;1.90;;
78925;SDS011;68321;51.276;7.208;2023-06-14T09:04:38;4.05;;;1.77;;
78925;SDS011;68321;51.276;7.208;2023-06-14T09:07:04;4.15;;;2.13;;
78925;SDS011;68321;51.276;7.208;2023-06-14T09:09:31;4.88;;;2.35;;
78925;SDS011;68321;51.276;7.208;2023-06-14T09:11:57;3.85;;;1.83;;
78925;SDS011;68321;51.276;7.208;2023-06-14T09:14:23;3.78;;;2.17;;
78925;SDS011;68321;51.276;7.208;2023-06-14T09:16:53;2.75;;;1.95;;
78925;SDS011;68321;51.276;7.208;2023-06-14T09:19:25;5.15;;;2.13;;
78925;SDS011;68321;51.276;7.208;2023-06-14T09:21:50;2.97;;;1.88;;
78925;SDS011;68321;51.276;7.208;2023-06-14T09:24:18;2.72;;;1.90;;
78925;SDS011;68321;51.276;7.208;2023-06-14T09:26:46;3.20;;;2.25;;
78925;SDS011;68321;51.276;7.208;2023-06-14T09:29:12;2.85;;;1.90;;
78925;SDS011;68321;51.276;7.208;2023-06-14T09:31:37;3.90;;;2.83;;
78925;SDS011;68321;51.276;7.208;2023-06-14T09:34:03;5.93;;;2.10;;
78925;SDS011;68321;51.276;7.208;2023-06-14T09:36:30;3.92;;;2.40;;
78925;SDS011;68321;51.276;7.208;2023-06-14T09:41:35;3.10;;;2.10;;
78925;SDS011;68321;51.276;7.208;2023-06-14T09:44:03;4.13;;;2.47;;
78925;SDS011;68321;51.276;7.208;2023-06-14T09:46:30;3.08;;;2.28;;
78925;SDS011;68321;51.276;7.208;2023-06-14T09:48:55;2.67;;;1.83;;
78925;SDS011;68321;51.276;7.208;2023-06-14T09:51:22;6.65;;;2.40;;
78925;SDS011;68321;51.276;7.208;2023-06-14T09:53:51;4.10;;;2.08;;
78925;SDS011;68321;51.276;7.208;2023-06-14T09:56:18;3.00;;;1.90;;
78925;SDS011;68321;51.276;7.208;2023-06-14T09:58:49;3.42;;;2.15;;
78925;SDS011;68321;51.276;7.208;2023-06-14T10:01:15;4.65;;;2.42;;
78925;SDS011;68321;51.276;7.208;2023-06-14T10:03:41;4.60;;;2.20;;
78925;SDS011;68321;51.276;7.208;2023-06-14T10:06:07;4.40;;;2.00;;
78925;SDS011;68321;51.276;7.208;2023-06-14T10:08:33;4.00;;;2.65;;
78925;SDS011;68321;51.276;7.208;2023-06-14T10:11:02;4.13;;;2.40;;
78925;SDS011;68321;51.276;7.208;2023-06-14T10:13:28;4.20;;;2.10;;
78925;SDS011;68321;51.276;7.208;2023-06-14T10:15:58;3.78;;;2.13;;
78925;SDS011;68321;51.276;7.208;2023-06-14T10:21:26;6.45;;;1.90;;
78925;SDS011;68321;51.276;7.208;2023-06-14T10:23:58;2.53;;;1.70;;
78925;SDS011;68321;51.276;7.208;2023-06-14T10:26:26;4.18;;;1.50;;
78925;SDS011;68321;51.276;7.208;2023-06-14T10:28:59;2.60;;;2.03;;
78925;SDS011;68321;51.276;7.208;2023-06-14T10:34:23;3.47;;;2.05;;
78925;SDS011;68321;51.276;7.208;2023-06-14T10:37:08;4.25;;;2.10;;
78925;SDS011;68321;51.276;7.208;2023-06-14T10:39:40;3.55;;;2.10;;
78925;SDS011;68321;51.276;7.208;2023-06-14T10:42:07;3.92;;;2.00;;
78925;SDS011;68321;51.276;7.208;2023-06-14T10:44:33;3.03;;;1.83;;
78925;SDS011;68321;51.276;7.208;2023-06-14T10:47:04;2.33;;;1.75;;
78925;SDS011;68321;51.276;7.208;2023-06-14T10:49:39;2.70;;;1.70;;
78925;SDS011;68321;51.276;7.208;2023-06-14T10:57:26;6.30;;;1.92;;
78925;SDS011;68321;51.276;7.208;2023-06-14T10:59:51;3.00;;;1.70;;
78925;SDS011;68321;51.276;7.208;2023-06-14T11:05:04;5.35;;;1.75;;
78925;SDS011;68321;51.276;7.208;2023-06-14T11:07:55;3.15;;;1.52;;
78925;SDS011;68321;51.276;7.208;2023-06-14T11:10:37;4.03;;;1.90;;
78925;SDS011;68321;51.276;7.208;2023-06-14T11:13:03;7.13;;;1.88;;
78925;SDS011;68321;51.276;7.208;2023-06-14T11:15:34;3.95;;;2.00;;
78925;SDS011;68321;51.276;7.208;2023-06-14T11:18:01;2.53;;;1.35;;
78925;SDS011;68321;51.276;7.208;2023-06-14T11:20:29;4.85;;;1.70;;
78925;SDS011;68321;51.276;7.208;2023-06-14T11:22:55;3.53;;;1.80;;
78925;SDS011;68321;51.276;7.208;2023-06-14T11:25:20;4.27;;;2.00;;
78925;SDS011;68321;51.276;7.208;2023-06-14T11:27:46;4.30;;;1.70;;
78925;SDS011;68321;51.276;7.208;2023-06-14T11:30:14;2.83;;;2.00;;
78925;SDS011;68321;51.276;7.208;2023-06-14T11:32:40;2.13;;;1.40;;
78925;SDS011;68321;51.276;7.208;2023-06-14T11:35:06;2.67;;;1.50;;
78925;SDS011;68321;51.276;7.208;2023-06-14T11:37:32;7.10;;;2.25;;
78925;SDS011;68321;51.276;7.208;2023-06-14T11:40:02;7.10;;;1.75;;
78925;SDS011;68321;51.276;7.208;2023-06-14T11:42:33;3.60;;;1.60;;
78925;SDS011;68321;51.276;7.208;2023-06-14T11:44:59;2.03;;;1.30;;
78925;SDS011;68321;51.276;7.208;2023-06-14T11:47:24;3.13;;;1.50;;
78925;SDS011;68321;51.276;7.208;2023-06-14T11:49:50;4.63;;;1.67;;
78925;SDS011;68321;51.276;7.208;2023-06-14T11:52:15;2.53;;;1.27;;
78925;SDS011;68321;51.276;7.208;2023-06-14T11:54:41;2.45;;;1.55;;
78925;SDS011;68321;51.276;7.208;2023-06-14T11:57:07;4.07;;;1.70;;
78925;SDS011;68321;51.276;7.208;2023-06-14T11:59:42;9.07;;;2.40;;
78925;SDS011;68321;51.276;7.208;2023-06-14T12:02:09;2.72;;;1.63;;
78925;SDS011;68321;51.276;7.208;2023-06-14T12:04:35;3.75;;;2.25;;
78925;SDS011;68321;51.276;7.208;2023-06-14T12:07:10;3.88;;;1.92;;
78925;SDS011;68321;51.276;7.208;2023-06-14T12:09:39;2.38;;;1.27;;
78925;SDS011;68321;51.276;7.208;2023-06-14T12:12:12;3.90;;;2.13;;
78925;SDS011;68321;51.276;7.208;2023-06-14T12:14:37;4.80;;;3.03;;
78925;SDS011;68321;51.276;7.208;2023-06-14T12:17:06;2.40;;;1.63;;
78925;SDS011;68321;51.276;7.208;2023-06-14T12:19:32;2.67;;;1.55;;
78925;SDS011;68321;51.276;7.208;2023-06-14T12:21:59;5.95;;;1.88;;
78925;SDS011;68321;51.276;7.208;2023-06-14T12:24:29;4.18;;;1.98;;
78925;SDS011;68321;51.276;7.208;2023-06-14T12:26:56;3.03;;;1.75;;
78925;SDS011;68321;51.276;7.208;2023-06-14T12:29:24;3.15;;;1.83;;
78925;SDS011;68321;51.276;7.208;2023-06-14T12:31:50;2.90;;;2.08;;
78925;SDS011;68321;51.276;7.208;2023-06-14T12:34:15;3.03;;;1.67;;
78925;SDS011;68321;51.276;7.208;2023-06-14T12:36:41;3.15;;;1.80;;
78925;SDS011;68321;51.276;7.208;2023-06-14T12:41:34;3.60;;;2.20;;
78925;SDS011;68321;51.276;7.208;2023-06-14T12:44:01;2.33;;;1.80;;
78925;SDS011;68321;51.276;7.208;2023-06-14T12:46:29;3.17;;;1.75;;
78925;SDS011;68321;51.276;7.208;2023-06-14T12:48:56;3.50;;;1.83;;
78925;SDS011;68321;51.276;7.208;2023-06-14T12:51:21;5.38;;;3.22;;
78925;SDS011;68321;51.276;7.208;2023-06-14T12:53:47;7.63;;;2.03;;
78925;SDS011;68321;51.276;7.208;2023-06-14T12:56:13;7.53;;;1.90;;
78925;SDS011;68321;51.276;7.208;2023-06-14T12:58:39;4.32;;;2.17;;
78925;SDS011;68321;51.276;7.208;2023-06-14T13:01:04;5.18;;;1.88;;
78925;SDS011;68321;51.276;7.208;2023-06-14T13:03:30;2.88;;;1.90;;
78925;SDS011;68321;51.276;7.208;2023-06-14T13:05:55;4.00;;;2.00;;
78925;SDS011;68321;51.276;7.208;2023-06-14T13:08:21;4.15;;;2.00;;
78925;SDS011;68321;51.276;7.208;2023-06-14T13:10:47;3.47;;;2.13;;
78925;SDS011;68321;51.276;7.208;2023-06-14T13:13:12;2.75;;;1.88;;
78925;SDS011;68321;51.276;7.208;2023-06-14T13:15:38;2.53;;;1.73;;
78925;SDS011;68321;51.276;7.208;2023-06-14T13:18:04;4.15;;;2.40;;
78925;SDS011;68321;51.276;7.208;2023-06-14T13:20:30;3.90;;;2.10;;
78925;SDS011;68321;51.276;7.208;2023-06-14T13:22:56;5.28;;;2.20;;
78925;SDS011;68321;51.276;7.208;2023-06-14T13:25:21;3.95;;;2.17;;
78925;SDS011;68321;51.276;7.208;2023-06-14T13:27:47;3.05;;;1.92;;
78925;SDS011;68321;51.276;7.208;2023-06-14T13:30:13;5.63;;;2.60;;
78925;SDS011;68321;51.276;7.208;2023-06-14T13:32:39;4.75;;;2.25;;
78925;SDS011;68321;51.276;7.208;2023-06-14T13:35:04;4.75;;;2.42;;
78925;SDS011;68321;51.276;7.208;2023-06-14T13:37:30;3.75;;;2.10;;
78925;SDS011;68321;51.276;7.208;2023-06-14T13:39:56;3.90;;;1.88;;
78925;SDS011;68321;51.276;7.208;2023-06-14T13:42:21;3.55;;;2.25;;
78925;SDS011;68321;51.276;7.208;2023-06-14T13:44:47;5.05;;;2.22;;
78925;SDS011;68321;51.276;7.208;2023-06-14T13:47:12;3.13;;;1.73;;
78925;SDS011;68321;51.276;7.208;2023-06-14T13:49:37;4.60;;;2.13;;
78925;SDS011;68321;51.276;7.208;2023-06-14T13:52:03;3.63;;;2.08;;
78925;SDS011;68321;51.276;7.208;2023-06-14T13:54:29;3.70;;;1.85;;
78925;SDS011;68321;51.276;7.208;2023-06-14T13:56:54;7.13;;;1.98;;
78925;SDS011;68321;51.276;7.208;2023-06-14T13:59:19;2.47;;;1.52;;
78925;SDS011;68321;51.276;7.208;2023-06-14T14:01:45;3.10;;;2.20;;
78925;SDS011;68321;51.276;7.208;2023-06-14T14:04:10;3.10;;;1.90;;
78925;SDS011;68321;51.276;7.208;2023-06-14T14:06:36;2.63;;;1.77;;
78925;SDS011;68321;51.276;7.208;2023-06-14T14:09:02;4.43;;;2.28;;
78925;SDS011;68321;51.276;7.208;2023-06-14T14:11:27;4.97;;;1.98;;
78925;SDS011;68321;51.276;7.208;2023-06-14T14:13:53;3.03;;;1.95;;
78925;SDS011;68321;51.276;7.208;2023-06-14T14:16:18;3.63;;;2.45;;
78925;SDS011;68321;51.276;7.208;2023-06-14T14:18:45;3.38;;;2.45;;
78925;SDS011;68321;51.276;7.208;2023-06-14T14:21:10;2.78;;;1.80;;
78925;SDS011;68321;51.276;7.208;2023-06-14T14:23:36;3.17;;;2.03;;
78925;SDS011;68321;51.276;7.208;2023-06-14T14:26:01;2.92;;;2.08;;
78925;SDS011;68321;51.276;7.208;2023-06-14T14:28:29;2.90;;;1.83;;
78925;SDS011;68321;51.276;7.208;2023-06-14T14:30:55;4.95;;;1.92;;
78925;SDS011;68321;51.276;7.208;2023-06-14T14:33:20;6.27;;;2.30;;
78925;SDS011;68321;51.276;7.208;2023-06-14T14:35:46;10.77;;;6.60;;
78925;SDS011;68321;51.276;7.208;2023-06-14T14:38:12;4.80;;;2.15;;
78925;SDS011;68321;51.276;7.208;2023-06-14T14:40:39;3.78;;;2.10;;
78925;SDS011;68321;51.276;7.208;2023-06-14T14:43:05;2.65;;;1.75;;
78925;SDS011;68321;51.276;7.208;2023-06-14T14:45:30;4.10;;;2.38;;
78925;SDS011;68321;51.276;7.208;2023-06-14T14:47:56;4.05;;;2.80;;
78925;SDS011;68321;51.276;7.208;2023-06-14T14:50:22;5.88;;;2.42;;
78925;SDS011;68321;51.276;7.208;2023-06-14T14:52:50;3.20;;;2.15;;
78925;SDS011;68321;51.276;7.208;2023-06-14T14:55:15;4.07;;;2.08;;
78925;SDS011;68321;51.276;7.208;2023-06-14T14:57:40;2.93;;;1.97;;
78925;SDS011;68321;51.276;7.208;2023-06-14T15:00:06;4.53;;;1.93;;